sensor_id;sensor_type;location;lat;lon;timestamp;pressure;altitude;pressure_sealevel;temperature;humidity
20930;BME280;21895;47.072;15.132;2022-11-15T18:28:37;96139.00;;;10.97;78.25
20930;BME280;21895;47.072;15.132;2022-11-15T18:31:14;96136.00;;;10.88;78.14
20930;BME280;21895;47.072;15.132;2022-11-15T18:33:41;96135.00;;;10.73;78.54
20930;BME280;21895;47.072;15.132;2022-11-15T18:36:24;96133.00;;;10.75;78.29
20930;BME280;21895;47.072;15.132;2022-11-15T18:38:59;96135.00;;;10.73;78.21
20930;BME280;21895;47.072;15.132;2022-11-15T18:41:27;96132.00;;;10.79;77.93
20930;BME280;21895;47.072;15.132;2022-11-15T18:43:59;96130.00;;;10.69;78.14
20930;BME280;21895;47.072;15.132;2022-11-15T18:46:29;96125.00;;;10.68;78.21
20930;BME280;21895;47.072;15.132;2022-11-15T18:49:00;96129.00;;;10.74;78.14
20930;BME280;21895;47.072;15.132;2022-11-15T18:51:29;96124.00;;;10.72;78.09
20930;BME280;21895;47.072;15.132;2022-11-15T18:53:59;96118.00;;;10.63;78.24
20930;BME280;21895;47.072;15.132;2022-11-15T18:56:28;96121.00;;;10.60;78.38
20930;BME280;21895;47.072;15.132;2022-11-15T18:58:58;96119.00;;;10.56;78.65
20930;BME280;21895;47.072;15.132;2022-11-15T19:01:31;96110.00;;;10.57;78.87
20930;BME280;21895;47.072;15.132;2022-11-15T19:04:08;96111.00;;;10.55;79.02
20930;BME280;21895;47.072;15.132;2022-11-15T19:06:39;96109.00;;;10.48;79.32
20930;BME280;21895;47.072;15.132;2022-11-15T19:09:07;96109.00;;;10.53;79.12
20930;BME280;21895;47.072;15.132;2022-11-15T19:11:37;96103.00;;;10.52;79.19
20930;BME280;21895;47.072;15.132;2022-11-15T19:14:11;96102.00;;;10.53;79.18
20930;BME280;21895;47.072;15.132;2022-11-15T19:16:47;96099.00;;;10.52;79.37
20930;BME280;21895;47.072;15.132;2022-11-15T19:19:23;96096.00;;;10.48;79.34
20930;BME280;21895;47.072;15.132;2022-11-15T19:21:51;96092.00;;;10.51;79.33
20930;BME280;21895;47.072;15.132;2022-11-15T19:24:17;96092.00;;;10.49;79.29
20930;BME280;21895;47.072;15.132;2022-11-15T19:26:44;96089.00;;;10.49;79.31
20930;BME280;21895;47.072;15.132;2022-11-15T19:29:10;96085.00;;;10.49;79.49
20930;BME280;21895;47.072;15.132;2022-11-15T19:31:39;96088.00;;;10.46;79.44
20930;BME280;21895;47.072;15.132;2022-11-15T19:34:06;96077.00;;;10.56;78.86
20930;BME280;21895;47.072;15.132;2022-11-15T19:36:37;96087.00;;;10.54;79.17
20930;BME280;21895;47.072;15.132;2022-11-15T19:39:07;96086.00;;;10.60;79.07
20930;BME280;21895;47.072;15.132;2022-11-15T19:41:36;96074.00;;;10.49;79.27
20930;BME280;21895;47.072;15.132;2022-11-15T19:44:04;96079.00;;;10.45;79.46
20930;BME280;21895;47.072;15.132;2022-11-15T19:46:31;96081.00;;;10.42;79.70
20930;BME280;21895;47.072;15.132;2022-11-15T19:48:58;96083.00;;;10.41;79.74
20930;BME280;21895;47.072;15.132;2022-11-15T19:51:27;96079.00;;;10.40;79.72
20930;BME280;21895;47.072;15.132;2022-11-15T19:53:57;96075.00;;;10.43;79.61
20930;BME280;21895;47.072;15.132;2022-11-15T19:56:26;96079.00;;;10.40;79.75
20930;BME280;21895;47.072;15.132;2022-11-15T19:58:54;96076.00;;;10.40;79.59
20930;BME280;21895;47.072;15.132;2022-11-15T20:01:27;96083.00;;;10.26;80.37
20930;BME280;21895;47.072;15.132;2022-11-15T20:03:56;96070.00;;;10.28;80.52
20930;BME280;21895;47.072;15.132;2022-11-15T20:06:27;96074.00;;;10.34;80.33
20930;BME280;21895;47.072;15.132;2022-11-15T20:08:54;96067.00;;;10.41;79.89
20930;BME280;21895;47.072;15.132;2022-11-15T20:11:21;96072.00;;;10.33;79.95
20930;BME280;21895;47.072;15.132;2022-11-15T20:13:48;96073.00;;;10.27;80.33
20930;BME280;21895;47.072;15.132;2022-11-15T20:16:24;96078.00;;;10.30;80.36
20930;BME280;21895;47.072;15.132;2022-11-15T20:18:51;96071.00;;;10.34;80.15
20930;BME280;21895;47.072;15.132;2022-11-15T20:21:19;96062.00;;;10.28;80.16
20930;BME280;21895;47.072;15.132;2022-11-15T20:23:45;96064.00;;;10.31;80.32
20930;BME280;21895;47.072;15.132;2022-11-15T20:26:13;96075.00;;;10.36;79.89
20930;BME280;21895;47.072;15.132;2022-11-15T20:28:40;96062.00;;;10.33;79.96
20930;BME280;21895;47.072;15.132;2022-11-15T20:31:08;96060.00;;;10.30;80.20
20930;BME280;21895;47.072;15.132;2022-11-15T20:33:34;96059.00;;;10.29;80.24
20930;BME280;21895;47.072;15.132;2022-11-15T20:36:11;96057.00;;;10.25;80.41
20930;BME280;21895;47.072;15.132;2022-11-15T20:38:37;96058.00;;;10.24;80.43
20930;BME280;21895;47.072;15.132;2022-11-15T20:41:04;96056.00;;;10.19;80.61
20930;BME280;21895;47.072;15.132;2022-11-15T20:43:31;96050.00;;;10.19;80.76
20930;BME280;21895;47.072;15.132;2022-11-15T20:45:58;96047.00;;;10.24;80.69
20930;BME280;21895;47.072;15.132;2022-11-15T20:48:24;96046.00;;;10.26;80.50
20930;BME280;21895;47.072;15.132;2022-11-15T20:50:51;96047.00;;;10.27;80.50
20930;BME280;21895;47.072;15.132;2022-11-15T20:53:18;96050.00;;;10.30;80.30
20930;BME280;21895;47.072;15.132;2022-11-15T20:55:48;96044.00;;;10.37;79.95
20930;BME280;21895;47.072;15.132;2022-11-15T20:58:17;96043.00;;;10.33;79.95
20930;BME280;21895;47.072;15.132;2022-11-15T21:00:44;96046.00;;;10.30;80.12
20930;BME280;21895;47.072;15.132;2022-11-15T21:03:13;96040.00;;;10.35;79.56
20930;BME280;21895;47.072;15.132;2022-11-15T21:05:43;96049.00;;;10.25;79.92
20930;BME280;21895;47.072;15.132;2022-11-15T21:08:11;96037.00;;;10.17;80.29
20930;BME280;21895;47.072;15.132;2022-11-15T21:10:39;96035.00;;;10.23;80.28
20930;BME280;21895;47.072;15.132;2022-11-15T21:13:24;96037.00;;;10.23;80.29
20930;BME280;21895;47.072;15.132;2022-11-15T21:15:55;96026.00;;;10.19;80.45
20930;BME280;21895;47.072;15.132;2022-11-15T21:18:23;96025.00;;;10.20;80.48
20930;BME280;21895;47.072;15.132;2022-11-15T21:20:50;96022.00;;;10.23;80.45
20930;BME280;21895;47.072;15.132;2022-11-15T21:23:17;96028.00;;;10.28;80.19
20930;BME280;21895;47.072;15.132;2022-11-15T21:25:51;96035.00;;;10.33;80.13
20930;BME280;21895;47.072;15.132;2022-11-15T21:28:18;96019.00;;;10.29;80.14
20930;BME280;21895;47.072;15.132;2022-11-15T21:30:58;96021.00;;;10.29;80.06
20930;BME280;21895;47.072;15.132;2022-11-15T21:33:26;96016.00;;;10.35;79.69
20930;BME280;21895;47.072;15.132;2022-11-15T21:35:56;96015.00;;;10.20;80.08
20930;BME280;21895;47.072;15.132;2022-11-15T21:38:23;96010.00;;;10.26;79.93
20930;BME280;21895;47.072;15.132;2022-11-15T21:40:51;96005.00;;;10.17;80.12
20930;BME280;21895;47.072;15.132;2022-11-15T21:43:19;96004.00;;;10.27;80.20
20930;BME280;21895;47.072;15.132;2022-11-15T21:45:57;95999.00;;;10.34;79.85
20930;BME280;21895;47.072;15.132;2022-11-15T21:48:29;96008.00;;;10.33;79.71
20930;BME280;21895;47.072;15.132;2022-11-15T21:50:59;95995.00;;;10.38;79.44
20930;BME280;21895;47.072;15.132;2022-11-15T21:53:27;95991.00;;;10.36;79.63
20930;BME280;21895;47.072;15.132;2022-11-15T21:55:54;95989.00;;;10.29;80.04
20930;BME280;21895;47.072;15.132;2022-11-15T21:58:21;95991.00;;;10.32;79.84
20930;BME280;21895;47.072;15.132;2022-11-15T22:00:48;95992.00;;;10.29;79.87
20930;BME280;21895;47.072;15.132;2022-11-15T22:03:34;95990.00;;;10.30;80.07
20930;BME280;21895;47.072;15.132;2022-11-15T22:06:01;95989.00;;;10.27;80.00
20930;BME280;21895;47.072;15.132;2022-11-15T22:08:27;95991.00;;;10.27;80.07
20930;BME280;21895;47.072;15.132;2022-11-15T22:10:54;95987.00;;;10.33;79.89
20930;BME280;21895;47.072;15.132;2022-11-15T22:13:23;95987.00;;;10.38;79.64
20930;BME280;21895;47.072;15.132;2022-11-15T22:15:50;95988.00;;;10.30;79.69
20930;BME280;21895;47.072;15.132;2022-11-15T22:18:17;95988.00;;;10.30;79.23
20930;BME280;21895;47.072;15.132;2022-11-15T22:21:07;95976.00;;;10.26;78.98
20930;BME280;21895;47.072;15.132;2022-11-15T22:23:35;95967.00;;;10.30;78.52
20930;BME280;21895;47.072;15.132;2022-11-15T22:26:03;95969.00;;;10.25;78.17
20930;BME280;21895;47.072;15.132;2022-11-15T22:28:29;95958.00;;;10.23;78.31
20930;BME280;21895;47.072;15.132;2022-11-15T22:30:57;95958.00;;;10.22;78.07
20930;BME280;21895;47.072;15.132;2022-11-15T22:33:27;95956.00;;;10.32;77.50
20930;BME280;21895;47.072;15.132;2022-11-15T22:35:54;95954.00;;;10.24;77.56
20930;BME280;21895;47.072;15.132;2022-11-15T22:38:22;95952.00;;;10.23;77.58
20930;BME280;21895;47.072;15.132;2022-11-15T22:40:49;95949.00;;;10.24;77.60
20930;BME280;21895;47.072;15.132;2022-11-15T22:43:19;95946.00;;;10.15;77.92
20930;BME280;21895;47.072;15.132;2022-11-15T22:46:04;95946.00;;;10.15;77.90
20930;BME280;21895;47.072;15.132;2022-11-15T22:48:34;95937.00;;;10.16;77.74
20930;BME280;21895;47.072;15.132;2022-11-15T22:51:02;95932.00;;;10.18;77.92
20930;BME280;21895;47.072;15.132;2022-11-15T22:53:29;95932.00;;;10.15;78.19
20930;BME280;21895;47.072;15.132;2022-11-15T22:56:01;95927.00;;;10.18;77.88
20930;BME280;21895;47.072;15.132;2022-11-15T22:58:30;95923.00;;;10.19;77.85
20930;BME280;21895;47.072;15.132;2022-11-15T23:01:02;95926.00;;;10.47;76.58
20930;BME280;21895;47.072;15.132;2022-11-15T23:03:30;95921.00;;;10.25;77.33
20930;BME280;21895;47.072;15.132;2022-11-15T23:06:05;95924.00;;;10.13;77.82
20930;BME280;21895;47.072;15.132;2022-11-15T23:08:32;95920.00;;;10.17;77.85
20930;BME280;21895;47.072;15.132;2022-11-15T23:11:01;95915.00;;;10.14;78.07
20930;BME280;21895;47.072;15.132;2022-11-15T23:13:51;95906.00;;;10.24;77.63
20930;BME280;21895;47.072;15.132;2022-11-15T23:16:19;95915.00;;;10.04;78.36
20930;BME280;21895;47.072;15.132;2022-11-15T23:18:56;95905.00;;;10.03;78.63
20930;BME280;21895;47.072;15.132;2022-11-15T23:21:32;95896.00;;;10.08;78.56
20930;BME280;21895;47.072;15.132;2022-11-15T23:24:18;95889.00;;;9.98;78.81
20930;BME280;21895;47.072;15.132;2022-11-15T23:26:48;95895.00;;;10.07;78.10
20930;BME280;21895;47.072;15.132;2022-11-15T23:29:17;95891.00;;;9.92;78.66
20930;BME280;21895;47.072;15.132;2022-11-15T23:31:45;95890.00;;;9.84;79.21
20930;BME280;21895;47.072;15.132;2022-11-15T23:34:31;95901.00;;;9.84;79.22
20930;BME280;21895;47.072;15.132;2022-11-15T23:37:00;95906.00;;;9.88;78.95
20930;BME280;21895;47.072;15.132;2022-11-15T23:39:26;95899.00;;;9.94;78.58
20930;BME280;21895;47.072;15.132;2022-11-15T23:41:53;95897.00;;;9.98;77.90
20930;BME280;21895;47.072;15.132;2022-11-15T23:44:20;95890.00;;;10.11;76.64
20930;BME280;21895;47.072;15.132;2022-11-15T23:46:46;95882.00;;;10.07;76.47
20930;BME280;21895;47.072;15.132;2022-11-15T23:49:13;95877.00;;;9.97;76.51
20930;BME280;21895;47.072;15.132;2022-11-15T23:51:39;95876.00;;;9.93;76.61
20930;BME280;21895;47.072;15.132;2022-11-15T23:54:06;95879.00;;;9.88;76.75
20930;BME280;21895;47.072;15.132;2022-11-15T23:56:33;95875.00;;;9.89;76.96
20930;BME280;21895;47.072;15.132;2022-11-15T23:59:00;95866.00;;;10.00;75.89
